sensor_id;sensor_type;location;lat;lon;timestamp;P1;durP1;ratioP1;P2;durP2;ratioP2
5452;SDS011;2749;53.576;9.822;2023-04-25T00:01:46;38.47;;;6.20;;
5452;SDS011;2749;53.576;9.822;2023-04-25T00:04:12;10.83;;;4.80;;
5452;SDS011;2749;53.576;9.822;2023-04-25T00:06:38;11.63;;;5.00;;
5452;SDS011;2749;53.576;9.822;2023-04-25T00:09:05;16.33;;;5.40;;
5452;SDS011;2749;53.576;9.822;2023-04-25T00:11:36;19.07;;;6.47;;
5452;SDS011;2749;53.576;9.822;2023-04-25T00:14:02;11.77;;;5.77;;
5452;SDS011;2749;53.576;9.822;2023-04-25T00:16:29;12.23;;;4.97;;
5452;SDS011;2749;53.576;9.822;2023-04-25T00:18:58;14.20;;;5.80;;
5452;SDS011;2749;53.576;9.822;2023-04-25T00:21:24;20.43;;;5.57;;
5452;SDS011;2749;53.576;9.822;2023-04-25T00:23:50;19.17;;;6.00;;
5452;SDS011;2749;53.576;9.822;2023-04-25T00:26:16;14.73;;;5.07;;
5452;SDS011;2749;53.576;9.822;2023-04-25T00:28:42;17.30;;;6.93;;
5452;SDS011;2749;53.576;9.822;2023-04-25T00:31:08;18.17;;;4.77;;
5452;SDS011;2749;53.576;9.822;2023-04-25T00:33:34;17.00;;;5.30;;
5452;SDS011;2749;53.576;9.822;2023-04-25T00:36:00;11.90;;;5.43;;
5452;SDS011;2749;53.576;9.822;2023-04-25T00:38:26;14.07;;;5.13;;
5452;SDS011;2749;53.576;9.822;2023-04-25T00:40:52;11.53;;;4.23;;
5452;SDS011;2749;53.576;9.822;2023-04-25T00:43:18;18.57;;;6.07;;
5452;SDS011;2749;53.576;9.822;2023-04-25T00:45:43;22.83;;;4.97;;
5452;SDS011;2749;53.576;9.822;2023-04-25T00:48:13;15.90;;;6.43;;
5452;SDS011;2749;53.576;9.822;2023-04-25T00:50:39;16.87;;;5.57;;
5452;SDS011;2749;53.576;9.822;2023-04-25T00:53:05;10.43;;;4.90;;
5452;SDS011;2749;53.576;9.822;2023-04-25T00:55:31;10.27;;;6.00;;
5452;SDS011;2749;53.576;9.822;2023-04-25T00:57:59;20.03;;;6.40;;
5452;SDS011;2749;53.576;9.822;2023-04-25T01:00:25;22.17;;;5.00;;
5452;SDS011;2749;53.576;9.822;2023-04-25T01:02:51;17.17;;;5.03;;
5452;SDS011;2749;53.576;9.822;2023-04-25T01:05:17;15.80;;;5.33;;
5452;SDS011;2749;53.576;9.822;2023-04-25T01:07:43;13.97;;;4.70;;
5452;SDS011;2749;53.576;9.822;2023-04-25T01:10:10;11.53;;;4.53;;
5452;SDS011;2749;53.576;9.822;2023-04-25T01:12:36;19.83;;;5.50;;
5452;SDS011;2749;53.576;9.822;2023-04-25T01:15:02;16.07;;;5.10;;
5452;SDS011;2749;53.576;9.822;2023-04-25T01:17:28;9.47;;;4.73;;
5452;SDS011;2749;53.576;9.822;2023-04-25T01:19:54;16.63;;;4.53;;
5452;SDS011;2749;53.576;9.822;2023-04-25T01:22:20;22.90;;;5.53;;
5452;SDS011;2749;53.576;9.822;2023-04-25T01:24:46;23.07;;;6.17;;
5452;SDS011;2749;53.576;9.822;2023-04-25T01:27:12;16.00;;;5.80;;
5452;SDS011;2749;53.576;9.822;2023-04-25T01:29:38;18.97;;;6.33;;
5452;SDS011;2749;53.576;9.822;2023-04-25T01:32:05;11.00;;;5.20;;
5452;SDS011;2749;53.576;9.822;2023-04-25T01:34:31;15.43;;;5.97;;
5452;SDS011;2749;53.576;9.822;2023-04-25T01:36:57;11.70;;;4.80;;
5452;SDS011;2749;53.576;9.822;2023-04-25T01:39:24;36.07;;;6.37;;
5452;SDS011;2749;53.576;9.822;2023-04-25T01:41:50;18.63;;;6.27;;
5452;SDS011;2749;53.576;9.822;2023-04-25T01:44:16;11.83;;;4.70;;
5452;SDS011;2749;53.576;9.822;2023-04-25T01:46:42;15.77;;;4.83;;
5452;SDS011;2749;53.576;9.822;2023-04-25T01:49:08;11.23;;;4.67;;
5452;SDS011;2749;53.576;9.822;2023-04-25T01:51:34;13.50;;;5.50;;
5452;SDS011;2749;53.576;9.822;2023-04-25T01:54:00;10.70;;;4.53;;
5452;SDS011;2749;53.576;9.822;2023-04-25T01:56:30;16.53;;;7.60;;
5452;SDS011;2749;53.576;9.822;2023-04-25T01:58:56;14.47;;;5.60;;
5452;SDS011;2749;53.576;9.822;2023-04-25T02:01:22;22.27;;;5.37;;
5452;SDS011;2749;53.576;9.822;2023-04-25T02:03:48;18.70;;;5.30;;
5452;SDS011;2749;53.576;9.822;2023-04-25T02:06:13;15.73;;;5.00;;
5452;SDS011;2749;53.576;9.822;2023-04-25T02:08:39;14.67;;;5.53;;
5452;SDS011;2749;53.576;9.822;2023-04-25T02:11:05;9.30;;;4.60;;
5452;SDS011;2749;53.576;9.822;2023-04-25T02:13:31;16.43;;;5.57;;
5452;SDS011;2749;53.576;9.822;2023-04-25T02:15:57;18.13;;;6.00;;
5452;SDS011;2749;53.576;9.822;2023-04-25T02:18:23;15.43;;;5.70;;
5452;SDS011;2749;53.576;9.822;2023-04-25T02:20:51;22.27;;;4.93;;
5452;SDS011;2749;53.576;9.822;2023-04-25T02:23:17;23.13;;;5.33;;
5452;SDS011;2749;53.576;9.822;2023-04-25T02:25:44;14.07;;;4.63;;
5452;SDS011;2749;53.576;9.822;2023-04-25T02:28:10;15.73;;;4.90;;
5452;SDS011;2749;53.576;9.822;2023-04-25T02:30:36;14.80;;;4.50;;
5452;SDS011;2749;53.576;9.822;2023-04-25T02:33:01;13.70;;;5.30;;
5452;SDS011;2749;53.576;9.822;2023-04-25T02:35:27;14.43;;;4.90;;
5452;SDS011;2749;53.576;9.822;2023-04-25T02:37:54;12.97;;;4.73;;
5452;SDS011;2749;53.576;9.822;2023-04-25T02:40:20;8.20;;;3.57;;
5452;SDS011;2749;53.576;9.822;2023-04-25T02:42:46;9.90;;;3.43;;
5452;SDS011;2749;53.576;9.822;2023-04-25T02:45:11;9.73;;;3.50;;
5452;SDS011;2749;53.576;9.822;2023-04-25T02:47:37;18.83;;;5.20;;
5452;SDS011;2749;53.576;9.822;2023-04-25T02:50:04;13.80;;;4.37;;
5452;SDS011;2749;53.576;9.822;2023-04-25T02:52:30;17.90;;;5.67;;
5452;SDS011;2749;53.576;9.822;2023-04-25T02:54:56;20.93;;;4.43;;
5452;SDS011;2749;53.576;9.822;2023-04-25T02:57:22;11.33;;;4.67;;
5452;SDS011;2749;53.576;9.822;2023-04-25T02:59:48;8.33;;;4.00;;
5452;SDS011;2749;53.576;9.822;2023-04-25T03:02:13;10.03;;;4.67;;
5452;SDS011;2749;53.576;9.822;2023-04-25T03:04:39;16.83;;;4.63;;
5452;SDS011;2749;53.576;9.822;2023-04-25T03:07:05;13.80;;;4.47;;
5452;SDS011;2749;53.576;9.822;2023-04-25T03:09:31;13.83;;;4.60;;
5452;SDS011;2749;53.576;9.822;2023-04-25T03:11:57;17.23;;;5.93;;
5452;SDS011;2749;53.576;9.822;2023-04-25T03:14:23;12.23;;;3.73;;
5452;SDS011;2749;53.576;9.822;2023-04-25T03:16:49;7.47;;;3.50;;
5452;SDS011;2749;53.576;9.822;2023-04-25T03:19:15;14.00;;;4.67;;
5452;SDS011;2749;53.576;9.822;2023-04-25T03:21:41;8.70;;;3.30;;
5452;SDS011;2749;53.576;9.822;2023-04-25T03:24:07;7.63;;;3.80;;
5452;SDS011;2749;53.576;9.822;2023-04-25T03:26:33;18.20;;;4.57;;
5452;SDS011;2749;53.576;9.822;2023-04-25T03:28:59;11.13;;;3.60;;
5452;SDS011;2749;53.576;9.822;2023-04-25T03:31:25;20.87;;;5.47;;
5452;SDS011;2749;53.576;9.822;2023-04-25T03:33:51;8.93;;;3.37;;
5452;SDS011;2749;53.576;9.822;2023-04-25T03:36:17;16.23;;;3.70;;
5452;SDS011;2749;53.576;9.822;2023-04-25T03:38:43;26.57;;;5.00;;
5452;SDS011;2749;53.576;9.822;2023-04-25T03:41:09;17.03;;;4.77;;
5452;SDS011;2749;53.576;9.822;2023-04-25T03:43:35;11.20;;;3.73;;
5452;SDS011;2749;53.576;9.822;2023-04-25T03:46:01;8.27;;;3.87;;
5452;SDS011;2749;53.576;9.822;2023-04-25T03:48:27;10.97;;;4.30;;
5452;SDS011;2749;53.576;9.822;2023-04-25T03:50:53;10.93;;;3.70;;
5452;SDS011;2749;53.576;9.822;2023-04-25T03:53:19;16.33;;;3.83;;
5452;SDS011;2749;53.576;9.822;2023-04-25T03:55:45;7.70;;;3.60;;
5452;SDS011;2749;53.576;9.822;2023-04-25T03:58:11;14.50;;;3.53;;
5452;SDS011;2749;53.576;9.822;2023-04-25T04:00:37;8.30;;;3.90;;
5452;SDS011;2749;53.576;9.822;2023-04-25T04:03:03;15.13;;;4.00;;
5452;SDS011;2749;53.576;9.822;2023-04-25T04:05:28;8.70;;;2.60;;
5452;SDS011;2749;53.576;9.822;2023-04-25T04:07:55;16.37;;;3.60;;
5452;SDS011;2749;53.576;9.822;2023-04-25T04:10:21;4.80;;;2.80;;
5452;SDS011;2749;53.576;9.822;2023-04-25T04:12:47;12.43;;;3.60;;
5452;SDS011;2749;53.576;9.822;2023-04-25T04:15:13;17.40;;;3.80;;
5452;SDS011;2749;53.576;9.822;2023-04-25T04:17:39;8.73;;;3.50;;
5452;SDS011;2749;53.576;9.822;2023-04-25T04:20:06;16.87;;;4.40;;
5452;SDS011;2749;53.576;9.822;2023-04-25T04:22:33;8.07;;;3.70;;
5452;SDS011;2749;53.576;9.822;2023-04-25T04:24:58;16.50;;;4.27;;
5452;SDS011;2749;53.576;9.822;2023-04-25T04:27:24;6.70;;;3.07;;
5452;SDS011;2749;53.576;9.822;2023-04-25T04:29:51;7.27;;;2.77;;
5452;SDS011;2749;53.576;9.822;2023-04-25T04:32:18;11.63;;;3.53;;
5452;SDS011;2749;53.576;9.822;2023-04-25T04:34:44;6.33;;;2.90;;
5452;SDS011;2749;53.576;9.822;2023-04-25T04:37:12;14.17;;;3.67;;
5452;SDS011;2749;53.576;9.822;2023-04-25T04:39:38;14.27;;;6.50;;
5452;SDS011;2749;53.576;9.822;2023-04-25T04:42:04;6.20;;;3.43;;
5452;SDS011;2749;53.576;9.822;2023-04-25T04:44:30;13.80;;;4.23;;
5452;SDS011;2749;53.576;9.822;2023-04-25T04:46:59;18.57;;;5.30;;
5452;SDS011;2749;53.576;9.822;2023-04-25T04:49:25;9.40;;;4.07;;
5452;SDS011;2749;53.576;9.822;2023-04-25T04:51:51;7.70;;;2.90;;
5452;SDS011;2749;53.576;9.822;2023-04-25T04:54:17;9.70;;;3.60;;
5452;SDS011;2749;53.576;9.822;2023-04-25T04:56:43;21.33;;;4.87;;
5452;SDS011;2749;53.576;9.822;2023-04-25T04:59:09;8.20;;;2.73;;
5452;SDS011;2749;53.576;9.822;2023-04-25T05:01:36;9.07;;;3.27;;
5452;SDS011;2749;53.576;9.822;2023-04-25T05:04:02;9.53;;;4.30;;
5452;SDS011;2749;53.576;9.822;2023-04-25T05:06:28;20.53;;;3.77;;
5452;SDS011;2749;53.576;9.822;2023-04-25T05:08:55;15.77;;;6.23;;
5452;SDS011;2749;53.576;9.822;2023-04-25T05:11:21;11.13;;;3.10;;
5452;SDS011;2749;53.576;9.822;2023-04-25T05:13:48;9.77;;;4.40;;
5452;SDS011;2749;53.576;9.822;2023-04-25T05:16:14;8.47;;;3.63;;
5452;SDS011;2749;53.576;9.822;2023-04-25T05:18:39;13.70;;;4.63;;
5452;SDS011;2749;53.576;9.822;2023-04-25T05:21:06;10.23;;;3.20;;
5452;SDS011;2749;53.576;9.822;2023-04-25T05:23:32;12.17;;;2.90;;
5452;SDS011;2749;53.576;9.822;2023-04-25T05:25:58;11.83;;;3.83;;
5452;SDS011;2749;53.576;9.822;2023-04-25T05:28:24;13.13;;;4.50;;
5452;SDS011;2749;53.576;9.822;2023-04-25T05:30:50;6.07;;;3.30;;
5452;SDS011;2749;53.576;9.822;2023-04-25T05:33:17;12.50;;;2.60;;
5452;SDS011;2749;53.576;9.822;2023-04-25T05:35:42;10.10;;;3.40;;
5452;SDS011;2749;53.576;9.822;2023-04-25T05:38:08;13.87;;;3.40;;
5452;SDS011;2749;53.576;9.822;2023-04-25T05:40:34;9.67;;;2.90;;
5452;SDS011;2749;53.576;9.822;2023-04-25T05:43:00;8.47;;;3.83;;
5452;SDS011;2749;53.576;9.822;2023-04-25T05:45:26;8.87;;;3.13;;
5452;SDS011;2749;53.576;9.822;2023-04-25T05:47:52;7.77;;;3.23;;
5452;SDS011;2749;53.576;9.822;2023-04-25T05:50:18;14.83;;;5.13;;
5452;SDS011;2749;53.576;9.822;2023-04-25T05:52:44;6.60;;;3.20;;
5452;SDS011;2749;53.576;9.822;2023-04-25T05:55:10;10.27;;;4.00;;
5452;SDS011;2749;53.576;9.822;2023-04-25T05:57:36;12.20;;;3.43;;
5452;SDS011;2749;53.576;9.822;2023-04-25T06:00:02;10.50;;;2.33;;
5452;SDS011;2749;53.576;9.822;2023-04-25T06:02:29;7.87;;;2.97;;
5452;SDS011;2749;53.576;9.822;2023-04-25T06:04:55;13.73;;;3.53;;
5452;SDS011;2749;53.576;9.822;2023-04-25T06:07:21;2.27;;;1.87;;
5452;SDS011;2749;53.576;9.822;2023-04-25T06:09:47;6.33;;;3.00;;
5452;SDS011;2749;53.576;9.822;2023-04-25T06:12:13;8.90;;;2.77;;
5452;SDS011;2749;53.576;9.822;2023-04-25T06:14:39;7.23;;;3.43;;
5452;SDS011;2749;53.576;9.822;2023-04-25T06:17:05;5.60;;;2.30;;
5452;SDS011;2749;53.576;9.822;2023-04-25T06:19:33;11.10;;;3.73;;
5452;SDS011;2749;53.576;9.822;2023-04-25T06:21:59;7.90;;;3.07;;
5452;SDS011;2749;53.576;9.822;2023-04-25T06:24:25;7.30;;;3.10;;
5452;SDS011;2749;53.576;9.822;2023-04-25T06:26:51;11.23;;;2.60;;
5452;SDS011;2749;53.576;9.822;2023-04-25T06:29:17;9.77;;;2.80;;
5452;SDS011;2749;53.576;9.822;2023-04-25T06:31:43;9.87;;;3.20;;
5452;SDS011;2749;53.576;9.822;2023-04-25T06:34:09;13.40;;;3.50;;
5452;SDS011;2749;53.576;9.822;2023-04-25T06:36:35;7.20;;;3.37;;
5452;SDS011;2749;53.576;9.822;2023-04-25T06:39:01;12.30;;;3.70;;
5452;SDS011;2749;53.576;9.822;2023-04-25T06:41:27;15.03;;;3.47;;
5452;SDS011;2749;53.576;9.822;2023-04-25T06:43:53;6.90;;;2.73;;
5452;SDS011;2749;53.576;9.822;2023-04-25T06:46:19;5.50;;;2.77;;
5452;SDS011;2749;53.576;9.822;2023-04-25T06:48:45;4.97;;;2.40;;
5452;SDS011;2749;53.576;9.822;2023-04-25T06:51:11;10.53;;;2.60;;
5452;SDS011;2749;53.576;9.822;2023-04-25T06:53:38;3.50;;;2.50;;
5452;SDS011;2749;53.576;9.822;2023-04-25T06:56:04;14.70;;;2.80;;
5452;SDS011;2749;53.576;9.822;2023-04-25T06:58:30;6.47;;;2.80;;
5452;SDS011;2749;53.576;9.822;2023-04-25T07:00:56;8.03;;;2.70;;
5452;SDS011;2749;53.576;9.822;2023-04-25T07:03:22;3.70;;;1.87;;
5452;SDS011;2749;53.576;9.822;2023-04-25T07:05:48;10.93;;;3.17;;
5452;SDS011;2749;53.576;9.822;2023-04-25T07:08:14;8.63;;;3.00;;
5452;SDS011;2749;53.576;9.822;2023-04-25T07:10:40;7.70;;;2.13;;
5452;SDS011;2749;53.576;9.822;2023-04-25T07:13:06;6.90;;;2.00;;
5452;SDS011;2749;53.576;9.822;2023-04-25T07:15:32;3.50;;;2.30;;
5452;SDS011;2749;53.576;9.822;2023-04-25T07:17:58;8.67;;;2.60;;
5452;SDS011;2749;53.576;9.822;2023-04-25T07:20:24;5.43;;;2.43;;
5452;SDS011;2749;53.576;9.822;2023-04-25T07:22:52;6.60;;;2.30;;
5452;SDS011;2749;53.576;9.822;2023-04-25T07:25:18;8.53;;;2.73;;
5452;SDS011;2749;53.576;9.822;2023-04-25T07:27:44;14.57;;;3.00;;
5452;SDS011;2749;53.576;9.822;2023-04-25T07:30:10;6.70;;;2.30;;
5452;SDS011;2749;53.576;9.822;2023-04-25T07:32:37;7.23;;;2.07;;
5452;SDS011;2749;53.576;9.822;2023-04-25T07:35:03;10.77;;;3.07;;
5452;SDS011;2749;53.576;9.822;2023-04-25T07:37:29;6.40;;;2.00;;
5452;SDS011;2749;53.576;9.822;2023-04-25T07:39:55;18.90;;;3.33;;
5452;SDS011;2749;53.576;9.822;2023-04-25T07:42:21;8.60;;;2.50;;
5452;SDS011;2749;53.576;9.822;2023-04-25T07:44:47;8.57;;;2.90;;
5452;SDS011;2749;53.576;9.822;2023-04-25T07:47:12;5.83;;;1.80;;
5452;SDS011;2749;53.576;9.822;2023-04-25T07:49:38;6.80;;;1.63;;
5452;SDS011;2749;53.576;9.822;2023-04-25T07:52:05;8.10;;;2.23;;
5452;SDS011;2749;53.576;9.822;2023-04-25T07:54:31;5.37;;;2.10;;
5452;SDS011;2749;53.576;9.822;2023-04-25T07:56:57;7.83;;;2.60;;
5452;SDS011;2749;53.576;9.822;2023-04-25T07:59:23;5.83;;;2.63;;
5452;SDS011;2749;53.576;9.822;2023-04-25T08:01:49;7.90;;;2.00;;
5452;SDS011;2749;53.576;9.822;2023-04-25T08:04:15;6.70;;;1.43;;
5452;SDS011;2749;53.576;9.822;2023-04-25T08:06:41;3.73;;;1.70;;
5452;SDS011;2749;53.576;9.822;2023-04-25T08:09:07;7.17;;;2.40;;
5452;SDS011;2749;53.576;9.822;2023-04-25T08:11:34;6.87;;;2.10;;
5452;SDS011;2749;53.576;9.822;2023-04-25T08:14:00;4.10;;;1.40;;
5452;SDS011;2749;53.576;9.822;2023-04-25T08:16:26;5.97;;;2.13;;
5452;SDS011;2749;53.576;9.822;2023-04-25T08:18:52;18.80;;;2.43;;
5452;SDS011;2749;53.576;9.822;2023-04-25T08:21:18;4.90;;;1.83;;
5452;SDS011;2749;53.576;9.822;2023-04-25T08:23:44;7.47;;;2.27;;
5452;SDS011;2749;53.576;9.822;2023-04-25T08:26:10;6.20;;;1.83;;
5452;SDS011;2749;53.576;9.822;2023-04-25T08:28:36;8.17;;;2.03;;
5452;SDS011;2749;53.576;9.822;2023-04-25T08:31:02;6.33;;;1.80;;
5452;SDS011;2749;53.576;9.822;2023-04-25T08:33:28;7.17;;;2.30;;
5452;SDS011;2749;53.576;9.822;2023-04-25T08:35:54;12.50;;;3.67;;
5452;SDS011;2749;53.576;9.822;2023-04-25T08:38:20;4.30;;;1.60;;
5452;SDS011;2749;53.576;9.822;2023-04-25T08:40:48;6.90;;;2.57;;
5452;SDS011;2749;53.576;9.822;2023-04-25T08:43:16;5.27;;;1.57;;
5452;SDS011;2749;53.576;9.822;2023-04-25T08:45:43;4.23;;;1.80;;
5452;SDS011;2749;53.576;9.822;2023-04-25T08:48:11;3.53;;;1.63;;
5452;SDS011;2749;53.576;9.822;2023-04-25T08:50:50;5.87;;;2.13;;
5452;SDS011;2749;53.576;9.822;2023-04-25T08:53:17;10.47;;;2.10;;
5452;SDS011;2749;53.576;9.822;2023-04-25T08:55:47;6.47;;;1.60;;
5452;SDS011;2749;53.576;9.822;2023-04-25T08:58:13;4.53;;;1.80;;
5452;SDS011;2749;53.576;9.822;2023-04-25T09:00:40;3.23;;;1.27;;
5452;SDS011;2749;53.576;9.822;2023-04-25T09:03:06;4.07;;;1.27;;
5452;SDS011;2749;53.576;9.822;2023-04-25T09:05:34;2.47;;;0.93;;
5452;SDS011;2749;53.576;9.822;2023-04-25T09:08:01;1.83;;;0.80;;
5452;SDS011;2749;53.576;9.822;2023-04-25T09:10:27;2.07;;;1.50;;
5452;SDS011;2749;53.576;9.822;2023-04-25T09:13:01;5.70;;;1.77;;
5452;SDS011;2749;53.576;9.822;2023-04-25T09:15:28;9.40;;;1.83;;
5452;SDS011;2749;53.576;9.822;2023-04-25T09:17:55;6.13;;;1.80;;
5452;SDS011;2749;53.576;9.822;2023-04-25T09:20:21;6.33;;;1.43;;
5452;SDS011;2749;53.576;9.822;2023-04-25T09:22:47;7.33;;;2.30;;
5452;SDS011;2749;53.576;9.822;2023-04-25T09:25:13;6.57;;;2.00;;
5452;SDS011;2749;53.576;9.822;2023-04-25T09:27:49;3.10;;;1.53;;
5452;SDS011;2749;53.576;9.822;2023-04-25T09:30:16;10.30;;;4.10;;
5452;SDS011;2749;53.576;9.822;2023-04-25T09:32:43;19.63;;;6.50;;
5452;SDS011;2749;53.576;9.822;2023-04-25T09:35:10;4.60;;;1.20;;
5452;SDS011;2749;53.576;9.822;2023-04-25T09:37:36;8.63;;;2.10;;
5452;SDS011;2749;53.576;9.822;2023-04-25T09:40:04;1.87;;;1.13;;
5452;SDS011;2749;53.576;9.822;2023-04-25T09:42:30;6.83;;;1.60;;
5452;SDS011;2749;53.576;9.822;2023-04-25T09:44:57;6.43;;;2.17;;
5452;SDS011;2749;53.576;9.822;2023-04-25T09:47:26;4.13;;;1.60;;
5452;SDS011;2749;53.576;9.822;2023-04-25T09:49:53;10.77;;;1.87;;
5452;SDS011;2749;53.576;9.822;2023-04-25T09:52:20;4.37;;;1.43;;
5452;SDS011;2749;53.576;9.822;2023-04-25T09:54:47;3.20;;;1.97;;
5452;SDS011;2749;53.576;9.822;2023-04-25T09:57:14;9.73;;;4.00;;
5452;SDS011;2749;53.576;9.822;2023-04-25T09:59:43;6.63;;;2.20;;
5452;SDS011;2749;53.576;9.822;2023-04-25T10:02:09;6.77;;;2.83;;
5452;SDS011;2749;53.576;9.822;2023-04-25T10:04:36;4.50;;;1.83;;
5452;SDS011;2749;53.576;9.822;2023-04-25T10:07:03;6.60;;;2.20;;
5452;SDS011;2749;53.576;9.822;2023-04-25T10:09:31;2.20;;;1.47;;
5452;SDS011;2749;53.576;9.822;2023-04-25T10:12:00;3.23;;;1.20;;
5452;SDS011;2749;53.576;9.822;2023-04-25T10:14:26;2.30;;;1.00;;
5452;SDS011;2749;53.576;9.822;2023-04-25T10:16:53;5.17;;;1.70;;
5452;SDS011;2749;53.576;9.822;2023-04-25T10:19:19;2.80;;;1.60;;
5452;SDS011;2749;53.576;9.822;2023-04-25T10:21:46;2.63;;;1.30;;
5452;SDS011;2749;53.576;9.822;2023-04-25T10:24:14;2.57;;;1.63;;
5452;SDS011;2749;53.576;9.822;2023-04-25T10:26:40;2.83;;;1.00;;
5452;SDS011;2749;53.576;9.822;2023-04-25T10:29:06;7.20;;;2.40;;
5452;SDS011;2749;53.576;9.822;2023-04-25T10:31:32;3.67;;;1.27;;
5452;SDS011;2749;53.576;9.822;2023-04-25T10:33:59;5.30;;;2.00;;
5452;SDS011;2749;53.576;9.822;2023-04-25T10:36:26;6.30;;;1.80;;
5452;SDS011;2749;53.576;9.822;2023-04-25T10:38:56;6.37;;;1.77;;
5452;SDS011;2749;53.576;9.822;2023-04-25T10:41:23;4.20;;;1.83;;
5452;SDS011;2749;53.576;9.822;2023-04-25T10:43:49;3.13;;;1.33;;
5452;SDS011;2749;53.576;9.822;2023-04-25T10:48:58;19.33;;;3.60;;
5452;SDS011;2749;53.576;9.822;2023-04-25T10:51:31;14.33;;;2.13;;
5452;SDS011;2749;53.576;9.822;2023-04-25T10:53:58;3.30;;;1.63;;
5452;SDS011;2749;53.576;9.822;2023-04-25T10:56:25;4.00;;;1.73;;
5452;SDS011;2749;53.576;9.822;2023-04-25T10:58:51;5.17;;;2.40;;
5452;SDS011;2749;53.576;9.822;2023-04-25T11:01:19;4.50;;;1.70;;
5452;SDS011;2749;53.576;9.822;2023-04-25T11:03:45;9.70;;;3.27;;
5452;SDS011;2749;53.576;9.822;2023-04-25T11:06:22;7.80;;;2.20;;
5452;SDS011;2749;53.576;9.822;2023-04-25T11:08:49;5.83;;;2.30;;
5452;SDS011;2749;53.576;9.822;2023-04-25T11:11:18;5.70;;;1.83;;
5452;SDS011;2749;53.576;9.822;2023-04-25T11:13:48;5.50;;;1.97;;
5452;SDS011;2749;53.576;9.822;2023-04-25T11:16:14;5.03;;;1.60;;
5452;SDS011;2749;53.576;9.822;2023-04-25T11:18:41;4.67;;;1.57;;
5452;SDS011;2749;53.576;9.822;2023-04-25T11:21:07;10.07;;;2.00;;
5452;SDS011;2749;53.576;9.822;2023-04-25T11:23:33;2.93;;;1.13;;
5452;SDS011;2749;53.576;9.822;2023-04-25T11:25:59;4.70;;;1.67;;
5452;SDS011;2749;53.576;9.822;2023-04-25T11:28:26;2.03;;;1.10;;
5452;SDS011;2749;53.576;9.822;2023-04-25T11:30:52;9.43;;;3.87;;
5452;SDS011;2749;53.576;9.822;2023-04-25T11:33:18;1.90;;;1.13;;
5452;SDS011;2749;53.576;9.822;2023-04-25T11:35:48;2.60;;;1.40;;
5452;SDS011;2749;53.576;9.822;2023-04-25T11:38:14;2.83;;;1.43;;
5452;SDS011;2749;53.576;9.822;2023-04-25T11:40:40;3.37;;;1.23;;
5452;SDS011;2749;53.576;9.822;2023-04-25T11:43:06;2.00;;;1.50;;
5452;SDS011;2749;53.576;9.822;2023-04-25T11:45:32;5.20;;;1.30;;
5452;SDS011;2749;53.576;9.822;2023-04-25T11:47:58;2.17;;;1.03;;
5452;SDS011;2749;53.576;9.822;2023-04-25T11:50:24;3.60;;;1.60;;
5452;SDS011;2749;53.576;9.822;2023-04-25T11:52:50;6.90;;;2.07;;
5452;SDS011;2749;53.576;9.822;2023-04-25T11:55:17;6.00;;;1.80;;
5452;SDS011;2749;53.576;9.822;2023-04-25T11:57:44;9.90;;;2.17;;
5452;SDS011;2749;53.576;9.822;2023-04-25T12:02:37;5.13;;;1.27;;
5452;SDS011;2749;53.576;9.822;2023-04-25T12:05:06;9.90;;;1.60;;
5452;SDS011;2749;53.576;9.822;2023-04-25T12:07:33;6.00;;;1.37;;
5452;SDS011;2749;53.576;9.822;2023-04-25T12:09:59;1.90;;;1.13;;
5452;SDS011;2749;53.576;9.822;2023-04-25T12:12:31;4.20;;;1.63;;
5452;SDS011;2749;53.576;9.822;2023-04-25T12:15:07;2.20;;;1.20;;
5452;SDS011;2749;53.576;9.822;2023-04-25T12:17:34;1.50;;;1.10;;
5452;SDS011;2749;53.576;9.822;2023-04-25T12:20:05;2.63;;;1.13;;
5452;SDS011;2749;53.576;9.822;2023-04-25T12:22:31;4.20;;;1.10;;
5452;SDS011;2749;53.576;9.822;2023-04-25T12:24:57;3.30;;;1.77;;
5452;SDS011;2749;53.576;9.822;2023-04-25T12:27:23;7.00;;;1.30;;
5452;SDS011;2749;53.576;9.822;2023-04-25T12:29:52;3.67;;;1.63;;
5452;SDS011;2749;53.576;9.822;2023-04-25T12:32:19;2.23;;;1.33;;
5452;SDS011;2749;53.576;9.822;2023-04-25T12:34:45;7.73;;;1.70;;
5452;SDS011;2749;53.576;9.822;2023-04-25T12:37:12;2.60;;;1.90;;
5452;SDS011;2749;53.576;9.822;2023-04-25T12:39:38;3.63;;;1.33;;
5452;SDS011;2749;53.576;9.822;2023-04-25T12:42:04;3.97;;;1.43;;
5452;SDS011;2749;53.576;9.822;2023-04-25T12:44:30;3.43;;;1.40;;
5452;SDS011;2749;53.576;9.822;2023-04-25T12:46:55;5.37;;;2.13;;
5452;SDS011;2749;53.576;9.822;2023-04-25T12:49:21;4.83;;;1.80;;
5452;SDS011;2749;53.576;9.822;2023-04-25T12:51:48;3.03;;;1.20;;
5452;SDS011;2749;53.576;9.822;2023-04-25T12:54:14;4.70;;;1.80;;
5452;SDS011;2749;53.576;9.822;2023-04-25T12:56:40;5.03;;;2.13;;
5452;SDS011;2749;53.576;9.822;2023-04-25T12:59:06;9.30;;;1.80;;
5452;SDS011;2749;53.576;9.822;2023-04-25T13:01:32;6.43;;;1.83;;
5452;SDS011;2749;53.576;9.822;2023-04-25T13:03:58;3.97;;;1.90;;
5452;SDS011;2749;53.576;9.822;2023-04-25T13:06:24;3.43;;;1.30;;
5452;SDS011;2749;53.576;9.822;2023-04-25T13:08:51;4.90;;;1.60;;
5452;SDS011;2749;53.576;9.822;2023-04-25T13:11:17;2.37;;;0.93;;
5452;SDS011;2749;53.576;9.822;2023-04-25T13:13:43;4.67;;;1.70;;
5452;SDS011;2749;53.576;9.822;2023-04-25T13:16:09;2.73;;;1.30;;
5452;SDS011;2749;53.576;9.822;2023-04-25T13:18:36;6.07;;;2.03;;
5452;SDS011;2749;53.576;9.822;2023-04-25T13:21:02;4.63;;;1.93;;
5452;SDS011;2749;53.576;9.822;2023-04-25T13:23:28;6.53;;;1.90;;
5452;SDS011;2749;53.576;9.822;2023-04-25T13:25:55;4.40;;;1.60;;
5452;SDS011;2749;53.576;9.822;2023-04-25T13:28:26;5.80;;;2.03;;
5452;SDS011;2749;53.576;9.822;2023-04-25T13:30:52;6.47;;;2.30;;
5452;SDS011;2749;53.576;9.822;2023-04-25T13:33:18;4.23;;;2.20;;
5452;SDS011;2749;53.576;9.822;2023-04-25T13:35:45;4.83;;;2.03;;
5452;SDS011;2749;53.576;9.822;2023-04-25T13:38:14;5.27;;;2.03;;
5452;SDS011;2749;53.576;9.822;2023-04-25T13:40:40;2.83;;;1.77;;
5452;SDS011;2749;53.576;9.822;2023-04-25T13:43:06;1.40;;;1.30;;
5452;SDS011;2749;53.576;9.822;2023-04-25T13:45:32;8.20;;;2.00;;
5452;SDS011;2749;53.576;9.822;2023-04-25T13:47:58;2.07;;;1.10;;
5452;SDS011;2749;53.576;9.822;2023-04-25T13:50:25;5.37;;;1.90;;
5452;SDS011;2749;53.576;9.822;2023-04-25T13:52:51;5.17;;;2.00;;
5452;SDS011;2749;53.576;9.822;2023-04-25T13:55:17;3.80;;;1.53;;
5452;SDS011;2749;53.576;9.822;2023-04-25T13:57:43;6.50;;;1.87;;
5452;SDS011;2749;53.576;9.822;2023-04-25T14:00:09;5.43;;;1.93;;
5452;SDS011;2749;53.576;9.822;2023-04-25T14:02:35;4.23;;;2.00;;
5452;SDS011;2749;53.576;9.822;2023-04-25T14:05:02;9.20;;;2.20;;
5452;SDS011;2749;53.576;9.822;2023-04-25T14:07:28;5.50;;;1.73;;
5452;SDS011;2749;53.576;9.822;2023-04-25T14:09:55;6.40;;;2.43;;
5452;SDS011;2749;53.576;9.822;2023-04-25T14:12:22;2.73;;;1.57;;
5452;SDS011;2749;53.576;9.822;2023-04-25T14:14:48;14.77;;;2.27;;
5452;SDS011;2749;53.576;9.822;2023-04-25T14:17:14;3.73;;;1.53;;
5452;SDS011;2749;53.576;9.822;2023-04-25T14:19:40;8.07;;;2.93;;
5452;SDS011;2749;53.576;9.822;2023-04-25T14:22:10;5.57;;;1.93;;
5452;SDS011;2749;53.576;9.822;2023-04-25T14:24:36;6.47;;;2.50;;
5452;SDS011;2749;53.576;9.822;2023-04-25T14:27:02;6.10;;;1.70;;
5452;SDS011;2749;53.576;9.822;2023-04-25T14:29:27;4.60;;;2.93;;
5452;SDS011;2749;53.576;9.822;2023-04-25T14:31:53;3.17;;;2.07;;
5452;SDS011;2749;53.576;9.822;2023-04-25T14:34:21;7.33;;;2.00;;
5452;SDS011;2749;53.576;9.822;2023-04-25T14:36:47;5.00;;;2.63;;
5452;SDS011;2749;53.576;9.822;2023-04-25T14:39:13;4.77;;;3.50;;
5452;SDS011;2749;53.576;9.822;2023-04-25T14:41:39;8.50;;;2.00;;
5452;SDS011;2749;53.576;9.822;2023-04-25T14:44:05;3.70;;;1.87;;
5452;SDS011;2749;53.576;9.822;2023-04-25T14:46:31;5.50;;;2.03;;
5452;SDS011;2749;53.576;9.822;2023-04-25T14:48:57;4.47;;;2.00;;
5452;SDS011;2749;53.576;9.822;2023-04-25T14:51:23;4.50;;;1.27;;
5452;SDS011;2749;53.576;9.822;2023-04-25T14:53:49;9.53;;;2.27;;
5452;SDS011;2749;53.576;9.822;2023-04-25T14:56:15;2.33;;;1.00;;
5452;SDS011;2749;53.576;9.822;2023-04-25T14:58:41;5.33;;;1.60;;
5452;SDS011;2749;53.576;9.822;2023-04-25T15:01:07;9.67;;;1.93;;
5452;SDS011;2749;53.576;9.822;2023-04-25T15:03:33;5.90;;;2.10;;
5452;SDS011;2749;53.576;9.822;2023-04-25T15:05:59;2.50;;;1.50;;
5452;SDS011;2749;53.576;9.822;2023-04-25T15:08:25;2.90;;;2.33;;
5452;SDS011;2749;53.576;9.822;2023-04-25T15:10:51;5.80;;;1.80;;